createdAt,value
2019-02-07T00:00:36.457Z,-4.50
2019-02-07T00:03:05.620Z,-4.40
2019-02-07T00:05:34.288Z,-4.60
2019-02-07T00:08:02.903Z,-4.70
2019-02-07T00:10:31.494Z,-4.70
2019-02-07T00:13:00.114Z,-4.60
2019-02-07T00:15:29.129Z,-4.60
2019-02-07T00:17:57.775Z,-4.40
2019-02-07T00:20:26.442Z,-4.20
2019-02-07T00:22:55.050Z,-4.20
2019-02-07T00:25:23.670Z,-4.10
2019-02-07T00:27:52.683Z,-4.20
2019-02-07T00:30:22.461Z,-4.10
2019-02-07T00:32:51.064Z,-4.00
2019-02-07T00:35:19.741Z,-4.10
2019-02-07T00:37:48.359Z,-4.30
2019-02-07T00:40:20.580Z,-4.40
2019-02-07T00:42:49.279Z,-4.70
2019-02-07T00:45:19.243Z,-4.90
2019-02-07T00:47:48.318Z,-5.10
2019-02-07T00:50:18.208Z,-5.20
2019-02-07T00:52:46.875Z,-5.10
2019-02-07T00:55:20.465Z,-5.00
2019-02-07T00:57:49.079Z,-4.80
2019-02-07T01:00:25.754Z,-4.70
2019-02-07T01:02:54.547Z,-4.40
2019-02-07T01:05:23.682Z,-4.60
2019-02-07T01:07:52.953Z,-4.90
2019-02-07T01:10:24.218Z,-5.00
2019-02-07T01:12:52.822Z,-5.10
2019-02-07T01:15:22.187Z,-5.30
2019-02-07T01:17:50.806Z,-5.40
2019-02-07T01:20:19.774Z,-5.40
2019-02-07T01:22:48.374Z,-5.40
2019-02-07T01:25:20.231Z,-5.50
2019-02-07T01:27:49.105Z,-5.40
2019-02-07T01:30:23.138Z,-5.40
2019-02-07T01:32:51.819Z,-5.40
2019-02-07T01:35:20.501Z,-5.50
2019-02-07T01:37:49.767Z,-5.50
2019-02-07T01:40:19.967Z,-5.40
2019-02-07T01:42:48.731Z,-5.50
2019-02-07T01:45:22.270Z,-5.60
2019-02-07T01:47:51.754Z,-5.60
2019-02-07T01:50:22.418Z,-5.80
2019-02-07T01:52:51.414Z,-5.90
2019-02-07T01:55:20.302Z,-6.00
2019-02-07T01:57:48.966Z,-6.10
2019-02-07T02:00:18.944Z,-6.30
2019-02-07T02:02:48.032Z,-6.50
2019-02-07T02:05:19.009Z,-6.60
2019-02-07T02:07:48.573Z,-6.70
2019-02-07T02:10:27.913Z,-6.70
2019-02-07T02:12:56.977Z,-6.70
2019-02-07T02:15:25.718Z,-6.70
2019-02-07T02:17:54.604Z,-6.80
2019-02-07T02:20:25.452Z,-6.70
2019-02-07T02:22:55.822Z,-6.80
2019-02-07T02:25:24.610Z,-6.80
2019-02-07T02:27:53.484Z,-6.90
2019-02-07T02:30:25.115Z,-6.90
2019-02-07T02:32:53.781Z,-6.90
2019-02-07T02:35:23.175Z,-7.00
2019-02-07T02:37:51.906Z,-7.00
2019-02-07T02:40:20.574Z,-7.10
2019-02-07T02:42:49.243Z,-7.10
2019-02-07T02:45:20.899Z,-7.10
2019-02-07T02:47:49.777Z,-7.10
2019-02-07T02:50:20.247Z,-7.00
2019-02-07T02:52:49.242Z,-7.00
2019-02-07T02:55:19.486Z,-7.00
2019-02-07T02:57:48.016Z,-7.10
2019-02-07T03:00:21.738Z,-7.10
2019-02-07T03:02:57.939Z,-7.30
2019-02-07T03:05:44.189Z,-7.30
2019-02-07T03:08:26.929Z,-7.50
2019-02-07T03:11:03.381Z,-7.60
2019-02-07T03:13:49.802Z,-7.50
2019-02-07T03:16:22.936Z,-7.60
2019-02-07T03:19:09.391Z,-7.60
2019-02-07T03:21:54.843Z,-7.70
2019-02-07T03:24:25.023Z,-7.70
2019-02-07T03:26:55.330Z,-7.80
2019-02-07T03:29:37.292Z,-7.90
2019-02-07T03:32:23.677Z,-8.00
2019-02-07T03:34:59.679Z,-8.00
2019-02-07T03:37:41.966Z,-8.10
2019-02-07T03:40:20.450Z,-8.10
2019-02-07T03:42:53.354Z,-8.10
2019-02-07T03:45:24.001Z,-8.00
2019-02-07T03:47:54.203Z,-8.00
2019-02-07T03:50:24.541Z,-8.10
2019-02-07T03:52:54.798Z,-8.20
2019-02-07T03:55:28.146Z,-8.20
2019-02-07T03:58:01.280Z,-8.20
2019-02-07T04:00:46.164Z,-8.20
2019-02-07T04:03:16.334Z,-8.20
2019-02-07T04:05:58.894Z,-8.30
2019-02-07T04:08:31.895Z,-8.30
2019-02-07T04:11:04.882Z,-8.30
2019-02-07T04:13:35.192Z,-8.20
2019-02-07T04:16:15.495Z,-8.30
2019-02-07T04:19:04.788Z,-8.30
2019-02-07T04:21:38.753Z,-8.40
2019-02-07T04:24:11.818Z,-8.40
2019-02-07T04:26:42.303Z,-8.40
2019-02-07T04:29:27.484Z,-8.50
2019-02-07T04:32:14.037Z,-8.40
2019-02-07T04:34:59.807Z,-8.60
2019-02-07T04:37:39.223Z,-8.60
2019-02-07T04:40:12.555Z,-8.60
2019-02-07T04:42:48.590Z,-8.70
2019-02-07T04:45:27.747Z,-8.70
2019-02-07T04:47:57.952Z,-8.50
2019-02-07T04:50:28.190Z,-8.40
2019-02-07T04:53:13.566Z,-8.50
2019-02-07T04:55:46.745Z,-8.70
2019-02-07T04:58:25.969Z,-8.80
2019-02-07T05:00:56.138Z,-8.70
2019-02-07T05:03:29.655Z,-8.80
2019-02-07T05:06:16.254Z,-8.90
2019-02-07T05:09:03.114Z,-8.80
2019-02-07T05:11:39.341Z,-8.90
2019-02-07T05:14:24.611Z,-8.90
2019-02-07T05:16:57.965Z,-8.90
2019-02-07T05:19:44.854Z,-8.90
2019-02-07T05:22:31.256Z,-8.90
2019-02-07T05:25:04.071Z,-9.00
2019-02-07T05:27:43.823Z,-9.00
2019-02-07T05:30:34.331Z,-9.10
2019-02-07T05:33:13.533Z,-9.10
2019-02-07T05:35:58.948Z,-9.20
2019-02-07T05:38:41.348Z,-9.10
2019-02-07T05:41:17.402Z,-9.10
2019-02-07T05:43:59.442Z,-9.20
2019-02-07T05:46:51.041Z,-9.30
2019-02-07T05:49:25.315Z,-9.40
2019-02-07T05:52:13.863Z,-9.40
2019-02-07T05:54:52.887Z,-9.50
2019-02-07T05:57:28.815Z,-9.40
2019-02-07T06:00:16.855Z,-9.40
2019-02-07T06:02:47.112Z,-9.40
2019-02-07T06:05:26.390Z,-9.40
2019-02-07T06:08:10.092Z,-9.40
2019-02-07T06:10:40.307Z,-9.40
2019-02-07T06:13:19.483Z,-9.30
2019-02-07T06:15:49.954Z,-9.20
2019-02-07T06:18:32.271Z,-9.20
2019-02-07T06:21:18.755Z,-9.10
2019-02-07T06:23:51.655Z,-9.10
2019-02-07T06:26:37.085Z,-9.00
2019-02-07T06:29:09.907Z,-9.10
2019-02-07T06:31:40.071Z,-9.10
2019-02-07T06:34:13.561Z,-9.00
2019-02-07T06:36:43.762Z,-9.10
2019-02-07T06:39:29.041Z,-9.10
2019-02-07T06:41:59.297Z,-9.00
2019-02-07T06:44:41.569Z,-9.00
2019-02-07T06:47:13.391Z,-9.00
2019-02-07T06:49:46.399Z,-8.90
2019-02-07T06:52:16.598Z,-8.90
2019-02-07T06:54:58.831Z,-8.70
2019-02-07T06:57:37.638Z,-8.70
2019-02-07T07:00:26.978Z,-8.60
2019-02-07T07:02:57.234Z,-8.40
2019-02-07T07:05:45.774Z,-8.10
2019-02-07T07:08:18.736Z,-8.00
2019-02-07T07:10:48.970Z,-8.00
2019-02-07T07:13:19.210Z,-8.00
2019-02-07T07:15:49.407Z,-7.70
2019-02-07T07:18:22.430Z,-7.30
2019-02-07T07:21:09.208Z,-7.00
2019-02-07T07:23:39.375Z,-6.90
2019-02-07T07:26:12.427Z,-6.70
2019-02-07T07:28:42.763Z,-6.70
2019-02-07T07:31:18.889Z,-6.60
2019-02-07T07:33:55.002Z,-6.30
2019-02-07T07:36:25.251Z,-6.00
2019-02-07T07:38:58.359Z,-5.80
2019-02-07T07:41:44.938Z,-5.70
2019-02-07T07:44:17.707Z,-5.60
2019-02-07T07:46:47.886Z,-5.50
2019-02-07T07:49:24.191Z,-5.40
2019-02-07T07:51:54.434Z,-5.30
2019-02-07T07:54:33.803Z,-5.30
2019-02-07T07:57:20.382Z,-5.30
2019-02-07T08:00:08.778Z,-5.30
2019-02-07T08:02:47.840Z,-5.30
2019-02-07T08:05:18.106Z,-5.00
2019-02-07T08:07:54.058Z,-4.60
2019-02-07T08:10:26.903Z,-4.40
2019-02-07T08:13:13.750Z,-4.30
2019-02-07T08:15:49.782Z,-4.20
2019-02-07T08:18:31.903Z,-4.10
2019-02-07T08:21:18.396Z,-3.90
2019-02-07T08:23:57.739Z,-3.70
2019-02-07T08:26:44.254Z,-3.60
2019-02-07T08:29:17.170Z,-3.40
2019-02-07T08:31:56.431Z,-3.10
2019-02-07T08:34:32.424Z,-2.70
2019-02-07T08:37:21.012Z,-2.40
2019-02-07T08:40:07.574Z,-2.10
2019-02-07T08:42:50.281Z,-2.00
2019-02-07T08:45:36.780Z,-2.00
2019-02-07T08:48:11.323Z,-1.90
2019-02-07T08:50:44.549Z,-1.50
2019-02-07T08:53:33.131Z,-1.00
2019-02-07T08:56:09.026Z,-0.30
2019-02-07T08:58:56.062Z,0.50
2019-02-07T09:01:41.259Z,0.90
2019-02-07T09:04:14.018Z,1.10
2019-02-07T09:06:55.951Z,1.00
2019-02-07T09:09:42.786Z,0.80
2019-02-07T09:12:15.722Z,0.70
2019-02-07T09:14:55.032Z,0.80
2019-02-07T09:17:31.230Z,0.90
2019-02-07T09:20:01.425Z,0.70
2019-02-07T09:22:31.596Z,0.70
2019-02-07T09:25:11.431Z,0.60
2019-02-07T09:27:57.703Z,0.60
2019-02-07T09:30:42.908Z,0.50
2019-02-07T09:33:29.292Z,0.50
2019-02-07T09:36:17.913Z,0.60
2019-02-07T09:39:00.531Z,0.50
2019-02-07T09:41:30.720Z,0.40
2019-02-07T09:44:06.866Z,0.30
2019-02-07T09:46:55.434Z,0.30
2019-02-07T09:49:31.122Z,0.10
2019-02-07T09:52:04.286Z,0.10
2019-02-07T09:54:40.239Z,0.10
2019-02-07T09:57:19.883Z,0.10
2019-02-07T09:59:52.844Z,0.20
2019-02-07T10:02:25.802Z,0.30
2019-02-07T10:05:02.177Z,0.40
2019-02-07T10:07:41.719Z,0.50
2019-02-07T10:10:13.227Z,0.60
2019-02-07T10:12:46.439Z,0.80
2019-02-07T10:15:16.751Z,0.80
2019-02-07T10:18:01.904Z,0.90
2019-02-07T10:20:44.200Z,0.90
2019-02-07T10:23:16.956Z,0.90
2019-02-07T10:25:51.398Z,1.00
2019-02-07T10:28:38.247Z,1.20
2019-02-07T10:31:24.618Z,1.40
2019-02-07T10:34:18.948Z,1.40
2019-02-07T10:36:49.050Z,1.50
2019-02-07T10:39:22.441Z,1.60
2019-02-07T10:42:01.594Z,1.70
2019-02-07T10:44:35.123Z,1.70
2019-02-07T10:47:17.489Z,1.80
2019-02-07T10:49:59.692Z,1.80
2019-02-07T10:52:32.431Z,2.00
2019-02-07T10:55:08.611Z,2.10
2019-02-07T10:57:55.351Z,2.20
2019-02-07T11:00:42.298Z,2.20
2019-02-07T11:03:15.298Z,2.30
2019-02-07T11:05:48.196Z,2.30
2019-02-07T11:08:24.138Z,2.30
2019-02-07T11:11:03.512Z,2.30
2019-02-07T11:13:51.840Z,2.30
2019-02-07T11:16:38.498Z,2.30
2019-02-07T11:19:21.378Z,2.40
2019-02-07T11:21:50.379Z,2.50
2019-02-07T11:24:29.256Z,2.60
2019-02-07T11:26:59.498Z,2.60
2019-02-07T11:29:32.416Z,2.70
2019-02-07T11:32:09.277Z,2.70
2019-02-07T11:34:39.532Z,2.80
2019-02-07T11:37:12.571Z,2.80
2019-02-07T11:39:42.739Z,2.90
2019-02-07T11:42:13.077Z,2.90
2019-02-07T11:44:46.347Z,2.90
2019-02-07T11:47:28.630Z,3.00
2019-02-07T11:50:07.775Z,3.00
2019-02-07T11:52:37.967Z,3.10
2019-02-07T11:55:09.982Z,3.10
2019-02-07T11:57:56.632Z,3.10
2019-02-07T12:00:32.664Z,3.10
2019-02-07T12:03:15.121Z,3.20
2019-02-07T12:05:54.375Z,3.20
2019-02-07T12:08:24.566Z,3.20
2019-02-07T12:11:06.582Z,3.20
2019-02-07T12:13:36.891Z,3.10
2019-02-07T12:16:10.414Z,3.10
2019-02-07T12:18:52.337Z,3.00
2019-02-07T12:21:28.499Z,3.00
2019-02-07T12:24:11.078Z,2.90
2019-02-07T12:26:43.983Z,2.90
2019-02-07T12:29:30.478Z,2.90
2019-02-07T12:32:17.362Z,2.90
2019-02-07T12:34:50.308Z,2.90
2019-02-07T12:37:35.368Z,2.90
2019-02-07T12:40:11.931Z,2.80
2019-02-07T12:42:42.169Z,2.70
2019-02-07T12:45:12.774Z,2.70
2019-02-07T12:47:42.976Z,2.70
2019-02-07T12:50:31.322Z,2.70
2019-02-07T12:53:17.776Z,2.80
2019-02-07T12:55:52.665Z,2.90
2019-02-07T12:58:39.403Z,2.80
2019-02-07T13:01:26.415Z,2.70
2019-02-07T13:03:59.164Z,2.70
2019-02-07T13:06:35.570Z,2.70
2019-02-07T13:09:25.020Z,2.70
2019-02-07T13:12:13.527Z,2.70
2019-02-07T13:14:52.610Z,2.70
2019-02-07T13:17:25.814Z,2.80
2019-02-07T13:20:12.485Z,2.80
2019-02-07T13:22:57.799Z,2.80
2019-02-07T13:25:31.098Z,2.70
2019-02-07T13:28:04.053Z,2.60
2019-02-07T13:30:43.612Z,2.60
2019-02-07T13:33:16.705Z,2.60
2019-02-07T13:35:52.674Z,2.60
2019-02-07T13:38:22.975Z,2.70
2019-02-07T13:40:53.378Z,2.70
2019-02-07T13:43:35.599Z,2.80
2019-02-07T13:46:09.548Z,2.90
2019-02-07T13:48:45.777Z,2.90
2019-02-07T13:51:34.431Z,3.00
2019-02-07T13:54:04.618Z,3.00
2019-02-07T13:56:34.859Z,3.00
2019-02-07T13:59:05.125Z,3.00
2019-02-07T14:01:41.268Z,3.10
2019-02-07T14:04:11.604Z,3.10
2019-02-07T14:06:47.852Z,3.10
2019-02-07T14:09:34.718Z,3.20
2019-02-07T14:12:04.964Z,3.20
2019-02-07T14:14:37.842Z,3.30
2019-02-07T14:17:14.139Z,3.30
2019-02-07T14:20:03.835Z,3.20
2019-02-07T14:22:37.837Z,3.10
2019-02-07T14:25:25.566Z,3.10
2019-02-07T14:28:05.107Z,3.20
2019-02-07T14:30:38.099Z,3.40
2019-02-07T14:33:24.419Z,3.50
2019-02-07T14:36:11.157Z,3.50
2019-02-07T14:38:43.796Z,3.50
2019-02-07T14:41:19.959Z,3.50
2019-02-07T14:43:53.119Z,3.60
2019-02-07T14:46:23.283Z,3.50
2019-02-07T14:48:51.807Z,3.40
2019-02-07T14:51:20.482Z,3.30
2019-02-07T14:53:49.002Z,3.30
2019-02-07T14:56:17.616Z,3.20
2019-02-07T14:58:46.498Z,3.20
2019-02-07T15:01:15.154Z,3.20
2019-02-07T15:03:43.763Z,3.10
2019-02-07T15:06:12.278Z,3.10
2019-02-07T15:08:40.889Z,3.00
2019-02-07T15:11:09.607Z,3.00
2019-02-07T15:13:38.126Z,3.00
2019-02-07T15:16:06.942Z,3.00
2019-02-07T15:18:35.463Z,3.00
2019-02-07T15:21:04.424Z,3.00
2019-02-07T15:23:33.086Z,2.90
2019-02-07T15:26:01.627Z,2.80
2019-02-07T15:28:30.151Z,2.80
2019-02-07T15:30:58.687Z,2.80
2019-02-07T15:33:27.210Z,2.80
2019-02-07T15:35:55.730Z,2.80
2019-02-07T15:38:24.344Z,2.80
2019-02-07T15:40:53.356Z,2.70
2019-02-07T15:43:21.912Z,2.70
2019-02-07T15:45:50.434Z,2.60
2019-02-07T15:48:19.351Z,2.50
2019-02-07T15:50:48.410Z,2.40
2019-02-07T15:53:17.101Z,2.30
2019-02-07T15:55:45.695Z,2.30
2019-02-07T15:58:14.234Z,2.20
2019-02-07T16:00:44.335Z,2.20
2019-02-07T16:03:17.814Z,2.20
2019-02-07T16:05:46.399Z,2.20
2019-02-07T16:08:14.992Z,2.10
2019-02-07T16:10:43.613Z,2.10
2019-02-07T16:13:12.203Z,2.00
2019-02-07T16:15:40.730Z,2.00
2019-02-07T16:18:09.743Z,1.90
2019-02-07T16:20:48.448Z,1.90
2019-02-07T16:23:08.923Z,1.90
2019-02-07T16:25:37.738Z,2.00
2019-02-07T16:28:06.406Z,2.00
2019-02-07T16:30:35.499Z,2.00
2019-02-07T16:33:04.566Z,2.00
2019-02-07T16:35:33.328Z,2.00
2019-02-07T16:38:02.019Z,2.00
2019-02-07T16:40:30.612Z,1.90
2019-02-07T16:42:59.163Z,1.80
2019-02-07T16:45:28.432Z,1.80
2019-02-07T16:47:56.966Z,1.70
2019-02-07T16:50:33.112Z,1.80
2019-02-07T16:53:01.702Z,1.90
2019-02-07T16:55:30.800Z,1.90
2019-02-07T16:57:59.473Z,1.90
2019-02-07T17:00:33.422Z,2.00
2019-02-07T17:03:02.799Z,2.00
2019-02-07T17:05:31.386Z,2.00
2019-02-07T17:08:00.075Z,2.00
2019-02-07T17:10:39.843Z,2.00
2019-02-07T17:13:13.205Z,2.10
2019-02-07T17:15:41.871Z,2.20
2019-02-07T17:18:10.574Z,2.40
2019-02-07T17:20:39.508Z,2.30
2019-02-07T17:23:08.180Z,2.20
2019-02-07T17:25:36.855Z,2.10
2019-02-07T17:28:05.714Z,2.00
2019-02-07T17:30:34.685Z,1.90
2019-02-07T17:33:03.287Z,2.00
2019-02-07T17:35:31.888Z,2.00
2019-02-07T17:38:00.417Z,2.10
2019-02-07T17:40:29.287Z,2.00
2019-02-07T17:42:58.002Z,2.00
2019-02-07T17:45:28.203Z,1.90
2019-02-07T17:47:56.878Z,1.80
2019-02-07T17:50:33.670Z,1.80
2019-02-07T17:53:05.252Z,1.70
2019-02-07T17:55:33.846Z,1.70
2019-02-07T17:58:02.370Z,1.70
2019-02-07T18:00:59.541Z,1.70
2019-02-07T18:03:28.161Z,1.70
2019-02-07T18:05:56.878Z,1.70
2019-02-07T18:08:25.544Z,1.80
2019-02-07T18:10:54.095Z,1.80
2019-02-07T18:13:22.691Z,1.80
2019-02-07T18:15:51.222Z,1.80
2019-02-07T18:18:19.919Z,1.80
2019-02-07T18:20:48.647Z,1.90
2019-02-07T18:23:17.130Z,1.90
2019-02-07T18:25:46.223Z,1.80
2019-02-07T18:28:14.839Z,1.70
2019-02-07T18:30:43.508Z,1.70
2019-02-07T18:33:12.190Z,1.70
2019-02-07T18:35:40.790Z,1.70
2019-02-07T18:38:09.388Z,1.70
2019-02-07T18:40:38.143Z,1.80
2019-02-07T18:43:07.590Z,1.90
2019-02-07T18:45:36.251Z,2.10
2019-02-07T18:48:05.028Z,2.20
2019-02-07T18:50:38.784Z,2.30
2019-02-07T18:53:07.382Z,2.30
2019-02-07T18:55:35.935Z,2.30
2019-02-07T18:58:04.940Z,2.30
2019-02-07T19:00:35.951Z,2.30
2019-02-07T19:03:07.296Z,2.30
2019-02-07T19:05:36.279Z,2.20
2019-02-07T19:08:05.646Z,2.20
2019-02-07T19:10:34.319Z,2.10
2019-02-07T19:13:02.935Z,2.10
2019-02-07T19:15:40.051Z,2.10
2019-02-07T19:18:08.745Z,2.10
2019-02-07T19:20:37.339Z,1.90
2019-02-07T19:23:06.823Z,1.80
2019-02-07T19:25:35.960Z,1.70
2019-02-07T19:28:05.803Z,1.70
2019-02-07T19:30:34.775Z,1.60
2019-02-07T19:33:03.463Z,1.60
2019-02-07T19:35:32.132Z,1.60
2019-02-07T19:38:00.724Z,1.60
2019-02-07T19:40:29.343Z,1.70
2019-02-07T19:42:58.180Z,1.70
2019-02-07T19:45:28.562Z,1.60
2019-02-07T19:47:57.159Z,1.60
2019-02-07T19:50:29.363Z,1.60
2019-02-07T19:52:58.242Z,1.50
2019-02-07T19:55:31.604Z,1.50
2019-02-07T19:58:00.286Z,1.50
2019-02-07T20:00:33.985Z,1.50
2019-02-07T20:03:03.162Z,1.50
2019-02-07T20:05:31.898Z,1.40
2019-02-07T20:08:00.559Z,1.40
2019-02-07T20:10:30.003Z,1.40
2019-02-07T20:12:59.422Z,1.40
2019-02-07T20:15:30.690Z,1.40
2019-02-07T20:18:00.059Z,1.40
2019-02-07T20:20:28.854Z,1.30
2019-02-07T20:22:57.847Z,1.30
2019-02-07T20:25:26.605Z,1.30
2019-02-07T20:27:55.530Z,1.30
2019-02-07T20:30:32.260Z,1.30
2019-02-07T20:33:00.850Z,1.30
2019-02-07T20:35:29.478Z,1.30
2019-02-07T20:37:58.140Z,1.30
2019-02-07T20:40:28.397Z,1.40
2019-02-07T20:42:57.591Z,1.40
2019-02-07T20:45:26.265Z,1.40
2019-02-07T20:47:55.031Z,1.40
2019-02-07T20:50:25.517Z,1.40
2019-02-07T20:52:55.006Z,1.40
2019-02-07T20:55:24.759Z,1.40
2019-02-07T20:57:54.166Z,1.40
2019-02-07T21:00:33.987Z,1.40
2019-02-07T21:03:02.916Z,1.40
2019-02-07T21:05:32.985Z,1.40
2019-02-07T21:08:01.786Z,1.40
2019-02-07T21:10:39.713Z,1.50
2019-02-07T21:13:08.712Z,1.40
2019-02-07T21:15:37.401Z,1.40
2019-02-07T21:18:06.779Z,1.40
2019-02-07T21:20:36.745Z,1.40
2019-02-07T21:23:06.071Z,1.30
2019-02-07T21:25:40.523Z,1.30
2019-02-07T21:28:09.522Z,1.30
2019-02-07T21:30:38.126Z,1.30
2019-02-07T21:33:06.983Z,1.30
2019-02-07T21:35:35.607Z,1.30
2019-02-07T21:38:05.389Z,1.30
2019-02-07T21:40:34.072Z,1.30
2019-02-07T21:43:02.742Z,1.30
2019-02-07T21:45:31.560Z,1.30
2019-02-07T21:48:00.641Z,1.40
2019-02-07T21:50:30.822Z,1.40
2019-02-07T21:52:59.470Z,1.40
2019-02-07T21:55:30.063Z,1.40
2019-02-07T21:57:58.662Z,1.40
2019-02-07T22:00:32.787Z,1.40
2019-02-07T22:03:01.417Z,1.50
2019-02-07T22:05:30.282Z,1.50
2019-02-07T22:07:59.021Z,1.50
2019-02-07T22:10:27.687Z,1.40
2019-02-07T22:12:56.286Z,1.50
2019-02-07T22:15:27.152Z,1.60
2019-02-07T22:17:55.826Z,1.60
2019-02-07T22:20:30.915Z,1.70
2019-02-07T22:22:59.903Z,1.80
2019-02-07T22:25:28.553Z,1.90
2019-02-07T22:27:57.210Z,2.00
2019-02-07T22:30:31.870Z,2.10
2019-02-07T22:33:01.051Z,2.20
2019-02-07T22:35:29.909Z,2.20
2019-02-07T22:37:58.509Z,2.20
2019-02-07T22:40:27.263Z,2.20
2019-02-07T22:42:56.347Z,2.20
2019-02-07T22:45:26.411Z,2.20
2019-02-07T22:47:55.083Z,2.10
2019-02-07T22:50:28.623Z,2.10
2019-02-07T22:52:57.798Z,2.20
2019-02-07T22:55:26.467Z,2.10
2019-02-07T22:57:55.156Z,2.10
2019-02-07T23:00:37.616Z,2.00
2019-02-07T23:03:16.570Z,2.00
2019-02-07T23:05:45.163Z,2.10
2019-02-07T23:08:14.647Z,2.20
2019-02-07T23:10:43.545Z,2.20
2019-02-07T23:13:12.398Z,2.30
2019-02-07T23:15:41.016Z,2.30
2019-02-07T23:18:09.770Z,2.40
2019-02-07T23:20:38.383Z,2.30
2019-02-07T23:23:10.855Z,2.30
2019-02-07T23:25:39.938Z,2.30
2019-02-07T23:28:09.498Z,2.30
2019-02-07T23:30:38.365Z,2.30
2019-02-07T23:33:07.139Z,2.40
2019-02-07T23:35:35.802Z,2.30
2019-02-07T23:38:04.986Z,2.30
2019-02-07T23:40:33.579Z,2.30
2019-02-07T23:43:02.262Z,2.30
2019-02-07T23:45:30.849Z,2.30
2019-02-07T23:47:59.443Z,2.30
2019-02-07T23:50:28.114Z,2.30
2019-02-07T23:52:56.647Z,2.40
2019-02-07T23:55:25.189Z,2.40
2019-02-07T23:57:53.782Z,2.40
